createdAt,value
2018-08-18T00:00:27.358Z,71.10
2018-08-18T00:02:56.793Z,71.50
2018-08-18T00:05:25.967Z,71.30
2018-08-18T00:07:54.884Z,71.30
2018-08-18T00:10:29.878Z,71.40
2018-08-18T00:12:58.853Z,71.40
2018-08-18T00:15:28.012Z,71.80
2018-08-18T00:17:57.097Z,71.50
2018-08-18T00:20:26.469Z,71.70
2018-08-18T00:22:55.686Z,71.60
2018-08-18T00:25:24.901Z,71.50
2018-08-18T00:27:55.076Z,71.70
2018-08-18T00:30:26.956Z,71.80
2018-08-18T00:32:57.143Z,71.90
2018-08-18T00:35:26.183Z,72.10
2018-08-18T00:37:55.347Z,72.00
2018-08-18T00:40:24.464Z,72.10
2018-08-18T00:42:53.699Z,72.20
2018-08-18T00:45:22.874Z,72.10
2018-08-18T00:47:52.271Z,72.20
2018-08-18T00:50:34.093Z,72.10
2018-08-18T00:53:03.644Z,72.10
2018-08-18T00:55:32.725Z,72.00
2018-08-18T00:58:01.771Z,72.00
2018-08-18T01:00:30.854Z,72.20
2018-08-18T01:03:00.448Z,72.30
2018-08-18T01:05:29.669Z,72.10
2018-08-18T01:07:59.079Z,72.30
2018-08-18T01:10:29.295Z,72.40
2018-08-18T01:12:58.510Z,72.30
2018-08-18T01:15:28.348Z,72.50
2018-08-18T01:17:57.545Z,72.70
2018-08-18T01:20:26.490Z,72.70
2018-08-18T01:23:00.061Z,72.60
2018-08-18T01:25:29.393Z,72.80
2018-08-18T01:27:59.005Z,73.00
2018-08-18T01:30:31.915Z,72.90
2018-08-18T01:33:00.960Z,72.80
2018-08-18T01:35:30.182Z,73.00
2018-08-18T01:37:59.360Z,72.80
2018-08-18T01:40:28.359Z,73.10
2018-08-18T01:42:57.972Z,73.10
2018-08-18T01:45:27.129Z,73.10
2018-08-18T01:47:56.377Z,73.20
2018-08-18T01:50:25.666Z,73.30
2018-08-18T01:52:54.700Z,73.30
2018-08-18T01:55:24.472Z,73.20
2018-08-18T01:57:53.464Z,73.20
2018-08-18T02:00:27.656Z,73.30
2018-08-18T02:02:57.119Z,73.30
2018-08-18T02:05:27.572Z,73.60
2018-08-18T02:07:56.914Z,73.50
2018-08-18T02:10:26.207Z,73.60
2018-08-18T02:13:03.171Z,73.60
2018-08-18T02:15:33.005Z,73.60
2018-08-18T02:18:02.054Z,73.80
2018-08-18T02:20:31.298Z,73.60
2018-08-18T02:23:00.526Z,73.60
2018-08-18T02:25:29.577Z,73.70
2018-08-18T02:27:58.719Z,73.70
2018-08-18T02:30:27.829Z,73.60
2018-08-18T02:32:57.003Z,73.80
2018-08-18T02:35:26.330Z,73.80
2018-08-18T02:37:55.527Z,73.80
2018-08-18T02:40:25.864Z,74.00
2018-08-18T02:42:55.055Z,74.10
2018-08-18T02:45:24.149Z,73.80
2018-08-18T02:48:08.148Z,74.00
2018-08-18T02:50:37.753Z,73.90
2018-08-18T02:53:18.856Z,73.80
2018-08-18T02:55:48.285Z,73.90
2018-08-18T02:58:17.417Z,74.00
2018-08-18T03:00:47.156Z,74.00
2018-08-18T03:03:16.633Z,74.00
2018-08-18T03:05:45.661Z,74.10
2018-08-18T03:08:14.770Z,73.90
2018-08-18T03:10:43.941Z,74.30
2018-08-18T03:13:13.032Z,74.40
2018-08-18T03:15:57.503Z,74.40
2018-08-18T03:18:34.898Z,74.70
2018-08-18T03:21:04.079Z,74.40
2018-08-18T03:23:34.016Z,74.40
2018-08-18T03:26:03.183Z,74.70
2018-08-18T03:28:38.662Z,74.90
2018-08-18T03:31:07.854Z,74.90
2018-08-18T03:33:36.951Z,74.70
2018-08-18T03:36:24.152Z,74.70
2018-08-18T03:38:54.397Z,75.20
2018-08-18T03:41:24.190Z,75.00
2018-08-18T03:43:54.033Z,75.30
2018-08-18T03:46:23.016Z,75.20
2018-08-18T03:48:52.362Z,75.20
2018-08-18T03:51:24.117Z,75.10
2018-08-18T03:53:53.162Z,75.00
2018-08-18T03:56:22.797Z,74.90
2018-08-18T03:58:54.144Z,75.00
2018-08-18T04:01:58.130Z,76.00
2018-08-18T04:04:28.178Z,75.70
2018-08-18T04:06:58.178Z,75.90
2018-08-18T04:09:28.172Z,75.80
2018-08-18T04:11:58.601Z,76.40
2018-08-18T04:14:32.651Z,76.00
2018-08-18T04:17:03.883Z,76.10
2018-08-18T04:19:32.999Z,76.00
2018-08-18T04:22:02.662Z,76.80
2018-08-18T04:24:36.673Z,76.70
2018-08-18T04:27:05.707Z,76.70
2018-08-18T04:29:34.864Z,76.90
2018-08-18T04:32:03.977Z,76.50
2018-08-18T04:34:33.269Z,76.70
2018-08-18T04:37:02.583Z,76.70
2018-08-18T04:39:31.812Z,76.60
2018-08-18T04:42:00.846Z,77.70
2018-08-18T04:44:29.799Z,76.70
2018-08-18T04:46:58.906Z,77.50
2018-08-18T04:49:27.837Z,76.80
2018-08-18T04:51:57.400Z,77.00
2018-08-18T04:54:26.452Z,76.60
2018-08-18T04:56:55.514Z,77.10
2018-08-18T04:59:36.515Z,76.90
2018-08-18T05:02:05.764Z,76.60
2018-08-18T05:04:37.446Z,75.80
2018-08-18T05:07:06.585Z,75.70
2018-08-18T05:09:35.829Z,75.40
2018-08-18T05:12:04.983Z,75.80
2018-08-18T05:14:33.988Z,76.50
2018-08-18T05:17:02.965Z,76.00
2018-08-18T05:19:31.997Z,74.40
2018-08-18T05:22:01.154Z,74.70
2018-08-18T05:24:33.839Z,74.40
2018-08-18T05:27:21.124Z,74.90
2018-08-18T05:29:50.158Z,74.40
2018-08-18T05:32:19.278Z,74.20
2018-08-18T05:34:54.404Z,74.20
2018-08-18T05:37:23.494Z,73.20
2018-08-18T05:39:52.481Z,74.50
2018-08-18T05:42:21.789Z,72.70
2018-08-18T05:44:51.268Z,73.60
2018-08-18T05:47:21.183Z,73.60
2018-08-18T05:49:50.243Z,71.80
2018-08-18T05:52:20.810Z,72.20
2018-08-18T05:54:49.977Z,71.40
2018-08-18T05:57:22.996Z,71.60
2018-08-18T05:59:51.867Z,69.60
2018-08-18T06:02:20.880Z,72.20
2018-08-18T06:04:49.748Z,69.10
2018-08-18T06:07:18.665Z,68.50
2018-08-18T06:09:47.923Z,67.70
2018-08-18T06:12:20.047Z,67.40
2018-08-18T06:14:54.073Z,68.00
2018-08-18T06:17:28.271Z,67.80
2018-08-18T06:20:07.615Z,69.10
2018-08-18T06:22:37.127Z,69.40
2018-08-18T06:25:06.779Z,69.60
2018-08-18T06:27:35.931Z,69.60
2018-08-18T06:30:05.319Z,68.80
2018-08-18T06:32:34.321Z,67.00
2018-08-18T06:35:03.678Z,66.30
2018-08-18T06:37:32.552Z,66.40
2018-08-18T06:40:01.501Z,65.80
2018-08-18T06:42:37.788Z,66.80
2018-08-18T06:45:10.576Z,65.50
2018-08-18T06:47:39.885Z,64.40
2018-08-18T06:50:12.255Z,67.10
2018-08-18T06:52:41.256Z,65.10
2018-08-18T06:55:14.949Z,63.40
2018-08-18T06:57:49.166Z,63.50
2018-08-18T07:00:23.144Z,62.30
2018-08-18T07:02:52.002Z,62.70
2018-08-18T07:05:21.022Z,62.40
2018-08-18T07:07:50.567Z,65.20
2018-08-18T07:10:32.764Z,62.90
2018-08-18T07:13:05.579Z,62.10
2018-08-18T07:15:35.558Z,61.10
2018-08-18T07:18:04.872Z,63.00
2018-08-18T07:20:33.596Z,60.70
2018-08-18T07:23:02.281Z,61.80
2018-08-18T07:25:31.014Z,61.60
2018-08-18T07:28:12.129Z,63.60
2018-08-18T07:30:40.884Z,61.10
2018-08-18T07:33:09.512Z,60.80
2018-08-18T07:35:38.085Z,60.50
2018-08-18T07:38:06.913Z,60.20
2018-08-18T07:40:42.420Z,59.50
2018-08-18T07:43:12.848Z,58.90
2018-08-18T07:45:41.657Z,58.10
2018-08-18T07:48:11.040Z,58.60
2018-08-18T07:50:39.660Z,56.80
2018-08-18T07:53:10.706Z,56.80
2018-08-18T07:55:39.409Z,56.10
2018-08-18T07:58:10.489Z,57.40
2018-08-18T08:00:39.716Z,57.30
2018-08-18T08:03:10.649Z,57.30
2018-08-18T08:05:41.668Z,57.60
2018-08-18T08:08:10.917Z,56.30
2018-08-18T08:10:39.672Z,55.80
2018-08-18T08:13:09.582Z,55.30
2018-08-18T08:15:38.287Z,56.00
2018-08-18T08:18:07.029Z,57.60
2018-08-18T08:20:39.497Z,55.60
2018-08-18T08:23:08.751Z,55.10
2018-08-18T08:25:37.443Z,56.20
2018-08-18T08:28:06.250Z,54.40
2018-08-18T08:30:34.949Z,53.90
2018-08-18T08:33:03.738Z,53.80
2018-08-18T08:35:32.506Z,54.70
2018-08-18T08:38:01.625Z,54.50
2018-08-18T08:40:30.550Z,56.30
2018-08-18T08:42:59.177Z,54.50
2018-08-18T08:45:27.774Z,54.20
2018-08-18T08:47:56.913Z,55.50
2018-08-18T08:50:26.020Z,54.10
2018-08-18T08:52:56.589Z,53.00
2018-08-18T08:55:26.624Z,52.70
2018-08-18T08:57:55.429Z,53.50
2018-08-18T09:00:24.136Z,52.60
2018-08-18T09:02:52.837Z,54.50
2018-08-18T09:05:21.864Z,54.20
2018-08-18T09:07:50.546Z,52.10
2018-08-18T09:10:19.169Z,52.20
2018-08-18T09:12:47.973Z,52.30
2018-08-18T09:15:20.257Z,51.70
2018-08-18T09:17:48.977Z,52.10
2018-08-18T09:20:19.225Z,51.00
2018-08-18T09:22:53.725Z,51.50
2018-08-18T09:25:22.607Z,51.30
2018-08-18T09:27:55.517Z,50.70
2018-08-18T09:30:25.464Z,51.40
2018-08-18T09:32:54.459Z,50.90
2018-08-18T09:35:24.157Z,51.60
2018-08-18T09:37:58.655Z,51.10
2018-08-18T09:40:28.970Z,50.50
2018-08-18T09:42:57.919Z,50.90
2018-08-18T09:45:26.886Z,49.60
2018-08-18T09:47:56.038Z,51.90
2018-08-18T09:50:24.738Z,50.40
2018-08-18T09:52:53.463Z,50.60
2018-08-18T09:55:22.147Z,48.80
2018-08-18T09:57:50.896Z,48.50
2018-08-18T10:00:23.851Z,48.70
2018-08-18T10:02:52.577Z,48.30
2018-08-18T10:05:21.446Z,48.00
2018-08-18T10:07:50.164Z,48.30
2018-08-18T10:10:18.899Z,49.50
2018-08-18T10:12:47.961Z,48.90
2018-08-18T10:15:16.793Z,47.60
2018-08-18T10:17:46.667Z,47.60
2018-08-18T10:20:15.502Z,48.40
2018-08-18T10:22:44.283Z,48.40
2018-08-18T10:25:14.211Z,48.10
2018-08-18T10:27:43.230Z,46.70
2018-08-18T10:30:14.229Z,46.70
2018-08-18T10:32:49.467Z,47.00
2018-08-18T10:35:28.978Z,46.20
2018-08-18T10:37:58.130Z,47.30
2018-08-18T10:40:27.172Z,46.10
2018-08-18T10:42:56.370Z,46.80
2018-08-18T10:45:25.483Z,46.50
2018-08-18T10:47:54.359Z,47.00
2018-08-18T10:50:40.730Z,46.40
2018-08-18T10:53:11.053Z,45.80
2018-08-18T10:55:40.490Z,46.70
2018-08-18T10:58:10.390Z,46.10
2018-08-18T11:00:39.804Z,45.10
2018-08-18T11:03:09.529Z,45.60
2018-08-18T11:05:38.746Z,45.10
2018-08-18T11:08:11.726Z,45.20
2018-08-18T11:10:42.135Z,44.30
2018-08-18T11:13:11.275Z,44.70
2018-08-18T11:15:40.321Z,45.20
2018-08-18T11:18:11.035Z,45.40
2018-08-18T11:20:40.195Z,45.00
2018-08-18T11:23:15.053Z,44.70
2018-08-18T11:25:53.668Z,44.60
2018-08-18T11:28:23.272Z,44.30
2018-08-18T11:30:53.845Z,44.40
2018-08-18T11:33:36.784Z,45.10
2018-08-18T11:36:06.596Z,44.10
2018-08-18T11:38:35.592Z,43.60
2018-08-18T11:41:04.558Z,43.10
2018-08-18T11:43:45.905Z,42.80
2018-08-18T11:46:14.552Z,43.30
2018-08-18T11:48:43.185Z,42.30
2018-08-18T11:51:11.769Z,43.00
2018-08-18T11:53:51.612Z,43.00
2018-08-18T11:56:20.231Z,42.00
2018-08-18T11:58:59.676Z,42.60
2018-08-18T12:01:33.423Z,41.70
2018-08-18T12:04:02.287Z,41.90
2018-08-18T12:06:30.991Z,42.20
2018-08-18T12:08:59.891Z,43.10
2018-08-18T12:11:28.620Z,43.30
2018-08-18T12:13:57.265Z,41.50
2018-08-18T12:16:25.975Z,41.20
2018-08-18T12:18:54.806Z,41.80
2018-08-18T12:21:23.587Z,41.40
2018-08-18T12:23:52.337Z,41.40
2018-08-18T12:26:22.830Z,41.40
2018-08-18T12:28:53.242Z,42.40
2018-08-18T12:31:24.199Z,41.60
2018-08-18T12:33:52.996Z,42.20
2018-08-18T12:36:21.772Z,42.70
2018-08-18T12:38:53.126Z,43.20
2018-08-18T12:41:21.731Z,43.00
2018-08-18T12:43:52.435Z,42.40
2018-08-18T12:46:22.329Z,42.20
2018-08-18T12:48:52.345Z,40.50
2018-08-18T12:51:21.432Z,39.90
2018-08-18T12:53:52.283Z,39.10
2018-08-18T12:56:23.902Z,39.50
2018-08-18T12:58:52.579Z,39.50
2018-08-18T13:01:38.405Z,39.60
2018-08-18T13:04:09.479Z,39.20
2018-08-18T13:06:43.171Z,38.70
2018-08-18T13:09:13.513Z,38.50
2018-08-18T13:11:43.038Z,39.30
2018-08-18T13:14:11.726Z,38.20
2018-08-18T13:16:43.629Z,37.90
2018-08-18T13:19:14.277Z,38.20
2018-08-18T13:21:43.745Z,38.30
2018-08-18T13:24:12.473Z,38.70
2018-08-18T13:26:41.087Z,38.60
2018-08-18T13:29:09.733Z,39.60
2018-08-18T13:31:40.437Z,38.00
2018-08-18T13:34:11.955Z,38.10
2018-08-18T13:36:41.839Z,37.40
2018-08-18T13:39:12.882Z,36.70
2018-08-18T13:41:42.076Z,39.20
2018-08-18T13:44:10.797Z,36.90
2018-08-18T13:46:47.865Z,36.20
2018-08-18T13:49:19.877Z,36.90
2018-08-18T13:51:48.592Z,36.50
2018-08-18T13:54:17.239Z,37.80
2018-08-18T13:56:45.832Z,37.60
2018-08-18T13:59:14.820Z,37.00
2018-08-18T14:01:44.800Z,37.30
2018-08-18T14:04:19.908Z,37.80
2018-08-18T14:06:55.519Z,37.00
2018-08-18T14:09:24.159Z,36.50
2018-08-18T14:12:00.352Z,36.10
2018-08-18T14:14:29.096Z,36.60
2018-08-18T14:16:57.737Z,36.20
2018-08-18T14:19:26.438Z,37.20
2018-08-18T14:22:00.443Z,37.00
2018-08-18T14:24:36.697Z,37.60
2018-08-18T14:27:07.941Z,36.80
2018-08-18T14:29:36.561Z,36.50
2018-08-18T14:32:12.632Z,35.20
2018-08-18T14:34:41.453Z,35.40
2018-08-18T14:37:13.978Z,34.50
2018-08-18T14:39:44.289Z,35.80
2018-08-18T14:42:13.035Z,35.30
2018-08-18T14:44:41.954Z,36.30
2018-08-18T14:47:10.721Z,35.70
2018-08-18T14:49:41.662Z,36.00
2018-08-18T14:52:10.515Z,37.70
2018-08-18T14:54:45.619Z,36.20
2018-08-18T14:57:14.412Z,36.90
2018-08-18T14:59:43.286Z,38.30
2018-08-18T15:02:12.081Z,38.00
2018-08-18T15:04:40.999Z,38.40
2018-08-18T15:07:09.854Z,38.80
2018-08-18T15:09:42.793Z,38.30
2018-08-18T15:12:11.643Z,40.70
2018-08-18T15:14:40.666Z,40.40
2018-08-18T15:17:09.630Z,41.00
2018-08-18T15:19:43.113Z,40.90
2018-08-18T15:22:12.939Z,41.20
2018-08-18T15:24:41.669Z,41.40
2018-08-18T15:27:10.503Z,40.80
2018-08-18T15:29:43.357Z,41.40
2018-08-18T15:32:12.168Z,40.50
2018-08-18T15:34:41.040Z,40.50
2018-08-18T15:37:09.922Z,41.30
2018-08-18T15:39:51.269Z,41.50
2018-08-18T15:42:37.641Z,41.70
2018-08-18T15:45:07.659Z,41.80
2018-08-18T15:47:36.452Z,43.00
2018-08-18T15:50:05.394Z,42.80
2018-08-18T15:52:35.149Z,43.60
2018-08-18T15:55:05.412Z,43.90
2018-08-18T15:57:38.379Z,43.80
2018-08-18T16:00:20.084Z,44.10
2018-08-18T16:02:49.031Z,44.20
2018-08-18T16:05:23.051Z,44.60
2018-08-18T16:07:52.660Z,44.40
2018-08-18T16:10:21.856Z,45.00
2018-08-18T16:12:51.249Z,45.70
2018-08-18T16:15:21.901Z,45.50
2018-08-18T16:17:51.200Z,45.70
2018-08-18T16:20:26.118Z,45.90
2018-08-18T16:22:56.468Z,46.70
2018-08-18T16:25:33.535Z,45.90
2018-08-18T16:28:02.780Z,45.90
2018-08-18T16:30:31.688Z,45.90
2018-08-18T16:33:11.765Z,45.90
2018-08-18T16:35:41.946Z,45.40
2018-08-18T16:38:10.902Z,45.30
2018-08-18T16:40:39.820Z,45.10
2018-08-18T16:43:09.893Z,45.20
2018-08-18T16:45:38.563Z,45.10
2018-08-18T16:48:09.225Z,45.50
2018-08-18T16:50:39.092Z,45.00
2018-08-18T16:53:11.254Z,44.50
2018-08-18T16:55:41.467Z,44.30
2018-08-18T16:58:10.155Z,43.80
2018-08-18T17:00:58.070Z,44.60
2018-08-18T17:03:33.416Z,45.20
2018-08-18T17:06:05.003Z,44.40
2018-08-18T17:08:33.712Z,44.60
2018-08-18T17:11:06.193Z,44.10
2018-08-18T17:13:36.064Z,45.10
2018-08-18T17:16:08.747Z,45.10
2018-08-18T17:18:37.651Z,45.40
2018-08-18T17:21:09.045Z,45.90
2018-08-18T17:23:42.143Z,46.60
2018-08-18T17:26:15.259Z,46.70
2018-08-18T17:28:47.715Z,47.00
2018-08-18T17:31:26.745Z,47.70
2018-08-18T17:33:58.914Z,47.20
2018-08-18T17:36:32.718Z,47.30
2018-08-18T17:39:06.597Z,47.70
2018-08-18T17:41:38.669Z,48.00
2018-08-18T17:44:10.054Z,48.20
2018-08-18T17:46:46.401Z,48.80
2018-08-18T17:49:17.656Z,48.90
2018-08-18T17:51:59.992Z,49.30
2018-08-18T17:54:33.765Z,49.40
2018-08-18T17:57:05.320Z,49.60
2018-08-18T17:59:38.310Z,49.90
2018-08-18T18:02:14.295Z,50.00
2018-08-18T18:04:56.437Z,49.90
2018-08-18T18:07:29.424Z,50.40
2018-08-18T18:10:02.290Z,50.80
2018-08-18T18:12:35.064Z,51.00
2018-08-18T18:15:39.034Z,51.60
2018-08-18T18:18:24.104Z,52.20
2018-08-18T18:20:57.501Z,52.50
2018-08-18T18:23:32.229Z,53.60
2018-08-18T18:26:04.704Z,53.10
2018-08-18T18:28:43.937Z,53.00
2018-08-18T18:31:16.486Z,53.40
2018-08-18T18:33:53.460Z,54.00
2018-08-18T18:36:28.905Z,54.90
2018-08-18T18:39:00.392Z,55.20
2018-08-18T18:41:41.571Z,54.90
2018-08-18T18:44:13.223Z,55.10
2018-08-18T18:46:45.226Z,55.00
2018-08-18T18:49:26.680Z,55.40
2018-08-18T18:51:59.415Z,55.50
2018-08-18T18:54:33.151Z,55.30
2018-08-18T18:57:04.104Z,55.70
2018-08-18T18:59:34.536Z,56.10
2018-08-18T19:02:03.342Z,56.00
2018-08-18T19:04:32.118Z,56.20
2018-08-18T19:07:08.590Z,56.10
2018-08-18T19:09:42.542Z,56.00
2018-08-18T19:12:15.692Z,56.40
2018-08-18T19:14:46.857Z,56.70
2018-08-18T19:17:21.018Z,56.70
2018-08-18T19:19:59.977Z,57.10
2018-08-18T19:22:34.317Z,57.00
2018-08-18T19:25:07.149Z,56.90
2018-08-18T19:27:40.992Z,56.70
2018-08-18T19:30:15.183Z,57.20
2018-08-18T19:32:47.526Z,57.50
2018-08-18T19:35:27.841Z,58.00
2018-08-18T19:37:59.555Z,57.80
2018-08-18T19:40:33.749Z,57.70
2018-08-18T19:43:21.129Z,58.00
2018-08-18T19:45:54.705Z,57.70
2018-08-18T19:48:29.520Z,58.20
2018-08-18T19:51:06.715Z,58.20
2018-08-18T19:53:41.822Z,58.50
2018-08-18T19:56:14.637Z,58.40
2018-08-18T19:58:49.062Z,58.40
2018-08-18T20:01:19.511Z,58.30
2018-08-18T20:03:48.094Z,58.50
2018-08-18T20:06:23.981Z,58.50
2018-08-18T20:08:57.371Z,58.50
2018-08-18T20:11:30.916Z,58.70
2018-08-18T20:14:02.440Z,59.00
2018-08-18T20:16:33.805Z,59.10
2018-08-18T20:19:05.930Z,59.10
2018-08-18T20:21:39.437Z,59.50
2018-08-18T20:24:13.027Z,59.80
2018-08-18T20:26:45.720Z,59.60
2018-08-18T20:29:19.986Z,59.80
2018-08-18T20:32:05.852Z,60.00
2018-08-18T20:34:43.763Z,60.00
2018-08-18T20:37:14.480Z,60.30
2018-08-18T20:39:47.253Z,60.50
2018-08-18T20:42:23.630Z,60.90
2018-08-18T20:44:57.437Z,61.20
2018-08-18T20:47:33.899Z,61.20
2018-08-18T20:50:07.242Z,60.70
2018-08-18T20:52:41.322Z,60.60
2018-08-18T20:55:12.449Z,60.70
2018-08-18T20:57:45.578Z,61.00
2018-08-18T21:00:19.694Z,61.20
2018-08-18T21:02:51.650Z,61.30
2018-08-18T21:05:21.905Z,61.40
2018-08-18T21:07:56.629Z,61.30
2018-08-18T21:10:29.693Z,61.40
2018-08-18T21:13:03.203Z,61.70
2018-08-18T21:15:35.135Z,61.70
2018-08-18T21:18:21.364Z,62.10
2018-08-18T21:20:52.554Z,62.10
2018-08-18T21:23:28.410Z,61.80
2018-08-18T21:26:03.138Z,62.00
2018-08-18T21:28:35.731Z,62.30
2018-08-18T21:31:07.917Z,62.50
2018-08-18T21:33:41.366Z,62.30
2018-08-18T21:36:13.274Z,62.10
2018-08-18T21:38:48.431Z,62.20
2018-08-18T21:41:22.210Z,62.40
2018-08-18T21:43:52.454Z,62.70
2018-08-18T21:46:32.331Z,62.50
2018-08-18T21:49:02.494Z,62.70
2018-08-18T21:51:36.907Z,62.80
2018-08-18T21:54:08.826Z,62.90
2018-08-18T21:56:44.369Z,63.10
2018-08-18T21:59:18.139Z,63.00
2018-08-18T22:01:52.265Z,63.20
2018-08-18T22:04:24.214Z,63.00
2018-08-18T22:06:59.131Z,63.20
2018-08-18T22:09:32.367Z,63.20
2018-08-18T22:12:04.852Z,63.40
2018-08-18T22:14:33.525Z,63.40
2018-08-18T22:17:02.121Z,63.40
2018-08-18T22:19:30.746Z,63.50
2018-08-18T22:21:59.384Z,63.20
2018-08-18T22:24:28.020Z,63.00
2018-08-18T22:26:56.717Z,63.20
2018-08-18T22:29:26.520Z,63.60
2018-08-18T22:31:55.203Z,63.30
2018-08-18T22:34:23.857Z,63.50
2018-08-18T22:36:56.612Z,63.70
2018-08-18T22:39:25.255Z,64.10
2018-08-18T22:41:54.026Z,64.20
2018-08-18T22:44:22.912Z,64.10
2018-08-18T22:46:51.685Z,64.40
2018-08-18T22:49:20.474Z,64.20
2018-08-18T22:51:49.284Z,64.10
2018-08-18T22:54:18.131Z,64.40
2018-08-18T22:56:51.380Z,64.30
2018-08-18T22:59:20.377Z,64.30
2018-08-18T23:01:48.984Z,64.40
2018-08-18T23:04:33.911Z,64.50
2018-08-18T23:07:03.601Z,64.50
2018-08-18T23:09:32.737Z,64.60
2018-08-18T23:12:03.105Z,64.70
2018-08-18T23:14:35.574Z,64.70
2018-08-18T23:17:04.477Z,65.00
2018-08-18T23:19:33.720Z,64.90
2018-08-18T23:22:02.618Z,64.90
2018-08-18T23:24:37.735Z,65.00
2018-08-18T23:27:06.503Z,65.00
2018-08-18T23:29:35.117Z,65.30
2018-08-18T23:32:16.441Z,65.20
2018-08-18T23:34:45.170Z,65.30
2018-08-18T23:37:19.627Z,65.30
2018-08-18T23:39:53.064Z,65.40
2018-08-18T23:42:23.165Z,65.60
2018-08-18T23:44:51.862Z,65.40
2018-08-18T23:47:20.815Z,65.60
2018-08-18T23:49:49.600Z,65.60
2018-08-18T23:52:18.687Z,65.80
2018-08-18T23:54:47.270Z,65.70
2018-08-18T23:57:17.087Z,65.80
2018-08-18T23:59:45.906Z,65.90
